MET'MAP v2.0
soon released !

Expected late october,
this new version will be
more efficient, smarter,
and hosted on a brand new
server x3 powerfull...
...and still free !


Not compatible ?
Try the mobile version !

LOG IN : | Subscribe | Disclaimer | Who is Orbifly ? |
ICAO code :

TAF - LIEA Fertilia Alghero - 03 Dec 2020 15:32 UTC
Data Sources :     NOAA   


- Airport Elevation : 87 ft
- IATA code : AHO
- No reported NOTAMs.


LIEA - Fertilia Alghero

Latest METAR recorded : 2015/08/11 07:50 LIEA 110750Z VRB02KT 9999 SCT035 23/21 Q1013
TAF TAF LIEA
Valid from the 03 at 12:00 until the 04 at 12:00 UTC


031100Z 0312/0412 31010KT 9999 SCT030
BECMG 0318/0320 24013KT

Source NOAA


MET'MAP, your aeronautical weather chart ! - Copyright ORBIFLY December 2007

Programming & Development : Alexandra Zaïnal
Co-Developer : Marc-Olivier Méhu
Technical & hardware support : Manuel Goepfert
Concept & Financing : Baudouin d'Aumeries